Time;durP1;ratioP1;P1;durP2;ratioP2;P2;SDS_P1;SDS_P2;PMS_P1;PMS_P2;Temp;Humidity;BMP_temperature;BMP_pressure;BME280_temperature;BME280_humidity;BME280_pressure;Samples;Min_cycle;Max_cycle;Signal;HPM_P1;HPM_P2
2022/04/13 00:00:27;;;;;;;14.77;6.15;;;;;;;;;;5089125;28;20045;-66
2022/04/13 00:02:54;;;;;;;9.73;6.07;;;;;;;;;;5087881;28;20139;-66
2022/04/13 00:05:21;;;;;;;16.93;6.90;;;;;;;;;;5070298;28;20052;-67
2022/04/13 00:07:47;;;;;;;13.32;6.55;;;;;;;;;;5088352;28;20156;-66
2022/04/13 00:10:14;;;;;;;13.80;6.57;;;;;;;;;;5085104;28;20449;-66
2022/04/13 00:12:40;;;;;;;16.55;7.10;;;;;;;;;;5087337;28;20576;-66
2022/04/13 00:15:08;;;;;;;15.32;6.45;;;;;;;;;;5087694;28;20056;-67
2022/04/13 00:17:37;;;;;;;19.08;7.25;;;;;;;;;;5086413;28;20139;-66
2022/04/13 00:20:05;;;;;;;13.55;6.72;;;;;;;;;;5089631;28;20502;-67
2022/04/13 00:22:31;;;;;;;14.17;6.93;;;;;;;;;;5087077;28;20079;-67
2022/04/13 00:24:58;;;;;;;14.98;7.28;;;;;;;;;;5046968;28;20137;-66
2022/04/13 00:27:24;;;;;;;15.43;6.55;;;;;;;;;;5047660;28;20057;-66
2022/04/13 00:29:50;;;;;;;15.38;6.85;;;;;;;;;;5047635;28;20081;-66
2022/04/13 00:32:17;;;;;;;22.63;7.25;;;;;;;;;;5076044;28;20057;-65
2022/04/13 00:34:43;;;;;;;13.48;7.03;;;;;;;;;;5087247;28;20502;-67
2022/04/13 00:37:09;;;;;;;13.70;7.13;;;;;;;;;;5084396;28;20071;-66
2022/04/13 00:39:36;;;;;;;13.35;6.57;;;;;;;;;;5088012;28;20061;-66
2022/04/13 00:42:04;;;;;;;20.15;8.15;;;;;;;;;;5078225;28;20054;-65
2022/04/13 00:44:30;;;;;;;16.50;7.55;;;;;;;;;;5088190;28;20053;-66
2022/04/13 00:46:57;;;;;;;14.93;6.93;;;;;;;;;;5087837;28;21006;-65
2022/04/13 00:49:25;;;;;;;13.57;7.18;;;;;;;;;;5088249;28;20585;-66
2022/04/13 00:51:52;;;;;;;16.77;7.55;;;;;;;;;;5082452;28;20143;-65
2022/04/13 00:54:19;;;;;;;16.90;7.28;;;;;;;;;;5085106;28;20143;-66
2022/04/13 00:56:47;;;;;;;14.27;6.88;;;;;;;;;;5087761;28;20084;-66
2022/04/13 00:59:14;;;;;;;15.13;6.97;;;;;;;;;;5087596;28;20144;-66
2022/04/13 01:01:42;;;;;;;16.52;6.15;;;;;;;;;;5084667;28;20076;-66
2022/04/13 01:04:11;;;;;;;15.57;7.25;;;;;;;;;;5088360;28;20507;-66
2022/04/13 01:06:38;;;;;;;12.88;6.60;;;;;;;;;;5086404;28;20593;-66
2022/04/13 01:09:04;;;;;;;19.95;6.93;;;;;;;;;;5086685;28;20056;-66
2022/04/13 01:11:31;;;;;;;13.68;6.80;;;;;;;;;;5085030;28;20056;-66
2022/04/13 01:13:57;;;;;;;11.93;6.35;;;;;;;;;;5088043;28;20594;-66
2022/04/13 01:16:24;;;;;;;16.30;6.80;;;;;;;;;;5087430;28;20059;-66
2022/04/13 01:18:51;;;;;;;18.50;6.93;;;;;;;;;;5070079;28;20056;-66
2022/04/13 01:21:19;;;;;;;16.52;7.43;;;;;;;;;;5084198;28;20146;-66
2022/04/13 01:23:45;;;;;;;;;;;;;;;;;;5088429;28;20526;-66
2022/04/13 01:26:12;;;;;;;16.08;6.50;;;;;;;;;;5086107;28;44827;-66
2022/04/13 01:28:38;;;;;;;13.73;6.22;;;;;;;;;;5090733;28;20143;-66
2022/04/13 01:31:05;;;;;;;12.88;5.95;;;;;;;;;;5090147;28;20062;-66
2022/04/13 01:33:31;;;;;;;14.60;6.63;;;;;;;;;;5083880;28;20057;-66
2022/04/13 01:36:00;;;;;;;13.63;6.53;;;;;;;;;;5087876;28;20072;-66
2022/04/13 01:38:28;;;;;;;14.85;6.82;;;;;;;;;;5090587;28;20130;-66
2022/04/13 01:40:55;;;;;;;14.95;6.20;;;;;;;;;;5090456;28;20049;-66
2022/04/13 01:43:22;;;;;;;15.35;6.75;;;;;;;;;;5089251;28;20063;-66
2022/04/13 01:45:49;;;;;;;15.23;7.05;;;;;;;;;;5089549;28;20518;-66
2022/04/13 01:48:17;;;;;;;14.80;6.13;;;;;;;;;;5089117;28;20079;-66
2022/04/13 01:50:43;;;;;;;17.00;7.00;;;;;;;;;;5089919;28;20568;-66
2022/04/13 01:53:09;;;;;;;17.02;7.32;;;;;;;;;;5089780;28;20223;-66
2022/04/13 01:55:36;;;;;;;16.30;6.75;;;;;;;;;;5090658;28;20577;-66
2022/04/13 01:58:02;;;;;;;20.05;6.82;;;;;;;;;;5090825;28;20052;-66
2022/04/13 02:00:28;;;;;;;16.70;6.97;;;;;;;;;;5090644;28;20072;-66
2022/04/13 02:02:55;;;;;;;20.17;6.65;;;;;;;;;;5087945;28;20429;-66
2022/04/13 02:05:22;;;;;;;20.27;7.37;;;;;;;;;;5089443;28;20127;-66
2022/04/13 02:07:48;;;;;;;14.32;5.90;;;;;;;;;;5087554;28;20056;-66
2022/04/13 02:10:15;;;;;;;13.10;6.40;;;;;;;;;;5089237;28;20516;-66
2022/04/13 02:12:42;;;;;;;15.98;7.05;;;;;;;;;;5088574;28;20143;-66
2022/04/13 02:15:09;;;;;;;19.30;7.15;;;;;;;;;;5089651;28;20062;-66
2022/04/13 02:17:37;;;;;;;17.25;6.90;;;;;;;;;;5088858;28;20143;-66
2022/04/13 02:20:04;;;;;;;;;;;;;;;;;;5070971;28;20611;-66
2022/04/13 02:22:30;;;;;;;16.33;6.28;;;;;;;;;;5080021;28;45476;-66
2022/04/13 02:25:13;;;;;;;12.30;6.38;;;;;;;;;;5089641;28;20061;-66
2022/04/13 02:27:39;;;;;;;13.68;6.10;;;;;;;;;;5090638;28;20931;-66
2022/04/13 02:30:06;;;;;;;12.13;6.28;;;;;;;;;;5090856;28;20513;-66
2022/04/13 02:32:36;;;;;;;17.63;7.03;;;;;;;;;;5087514;28;20140;-66
2022/04/13 02:35:02;;;;;;;16.88;6.40;;;;;;;;;;5088651;28;20056;-66
2022/04/13 02:37:28;;;;;;;17.02;6.53;;;;;;;;;;5086345;28;20171;-66
2022/04/13 02:39:55;;;;;;;13.75;6.05;;;;;;;;;;5089845;28;20145;-66
2022/04/13 02:42:21;;;;;;;11.65;6.15;;;;;;;;;;5088097;28;20063;-66
2022/04/13 02:44:47;;;;;;;14.23;6.50;;;;;;;;;;5090069;28;20151;-66
2022/04/13 02:47:13;;;;;;;17.92;6.47;;;;;;;;;;5090309;28;20048;-66
2022/04/13 02:49:41;;;;;;;11.73;6.10;;;;;;;;;;5089658;28;20139;-66
2022/04/13 02:52:07;;;;;;;13.57;6.53;;;;;;;;;;5087223;28;20126;-66
2022/04/13 02:54:33;;;;;;;14.52;6.10;;;;;;;;;;5089720;28;20151;-66
2022/04/13 02:57:00;;;;;;;16.48;6.63;;;;;;;;;;5088807;28;20151;-66
2022/04/13 02:59:26;;;;;;;15.50;5.88;;;;;;;;;;5089113;28;20053;-66
2022/04/13 03:01:53;;;;;;;16.77;6.85;;;;;;;;;;5088024;28;20446;-66
2022/04/13 03:04:26;;;;;;;13.73;6.45;;;;;;;;;;5089652;28;20438;-66
2022/04/13 03:06:52;;;;;;;16.17;6.78;;;;;;;;;;5089304;28;20493;-66
2022/04/13 03:09:18;;;;;;;16.15;6.43;;;;;;;;;;5089301;28;20059;-66
2022/04/13 03:11:44;;;;;;;13.35;6.28;;;;;;;;;;5090147;28;20499;-66
2022/04/13 03:14:11;;;;;;;15.10;5.88;;;;;;;;;;5072217;28;20060;-66
2022/04/13 03:16:37;;;;;;;12.95;5.95;;;;;;;;;;5056093;28;20140;-66
2022/04/13 03:19:03;;;;;;;14.85;7.00;;;;;;;;;;5048880;28;20052;-66
2022/04/13 03:21:30;;;;;;;16.15;6.45;;;;;;;;;;5048620;28;20056;-66
2022/04/13 03:23:56;;;;;;;13.27;6.88;;;;;;;;;;5069562;28;20494;-66
2022/04/13 03:26:22;;;;;;;16.73;6.25;;;;;;;;;;5087781;28;20048;-66
2022/04/13 03:28:49;;;;;;;18.38;6.75;;;;;;;;;;5088932;28;20048;-66
2022/04/13 03:31:16;;;;;;;15.40;5.90;;;;;;;;;;5089338;28;20579;-66
2022/04/13 03:33:43;;;;;;;18.77;6.55;;;;;;;;;;5087773;28;20076;-66
2022/04/13 03:36:09;;;;;;;13.00;6.13;;;;;;;;;;5086330;28;20095;-66
2022/04/13 03:38:35;;;;;;;14.52;6.18;;;;;;;;;;5088388;28;20060;-66
2022/04/13 03:41:02;;;;;;;16.98;7.35;;;;;;;;;;5087520;28;20885;-66
2022/04/13 03:43:28;;;;;;;14.43;6.38;;;;;;;;;;5087889;28;20088;-66
2022/04/13 03:45:55;;;;;;;15.98;7.03;;;;;;;;;;5088906;28;20052;-66
2022/04/13 03:48:21;;;;;;;13.82;7.03;;;;;;;;;;5087524;28;20191;-66
2022/04/13 03:50:49;;;;;;;13.82;6.80;;;;;;;;;;5087942;28;20640;-66
2022/04/13 03:53:16;;;;;;;16.95;6.32;;;;;;;;;;5087117;28;20490;-66
2022/04/13 03:55:42;;;;;;;14.95;6.70;;;;;;;;;;5089614;28;20139;-66
2022/04/13 03:58:08;;;;;;;15.77;7.22;;;;;;;;;;5088546;28;20128;-66
2022/04/13 04:00:35;;;;;;;17.58;7.53;;;;;;;;;;5087398;28;20521;-66
2022/04/13 04:03:02;;;;;;;16.20;7.20;;;;;;;;;;5088679;28;20052;-66
2022/04/13 04:05:29;;;;;;;13.68;7.20;;;;;;;;;;5087618;28;20083;-66
2022/04/13 04:07:55;;;;;;;17.10;8.57;;;;;;;;;;5087132;28;20052;-66
2022/04/13 04:10:22;;;;;;;21.40;7.95;;;;;;;;;;5088686;28;20508;-66
2022/04/13 04:12:48;;;;;;;15.30;7.38;;;;;;;;;;5085690;28;20148;-66
2022/04/13 04:15:15;;;;;;;16.92;7.40;;;;;;;;;;5088085;28;20510;-66
2022/04/13 04:17:41;;;;;;;16.50;7.53;;;;;;;;;;5089018;28;20189;-66
2022/04/13 04:20:09;;;;;;;16.13;8.02;;;;;;;;;;5087156;28;20485;-66
2022/04/13 04:22:35;;;;;;;18.77;7.83;;;;;;;;;;5085689;28;20072;-66
2022/04/13 04:25:02;;;;;;;14.60;7.53;;;;;;;;;;5089286;28;20051;-66
2022/04/13 04:27:29;;;;;;;15.18;7.80;;;;;;;;;;5081771;28;20062;-66
2022/04/13 04:29:55;;;;;;;16.77;8.10;;;;;;;;;;5068025;28;20562;-66
2022/04/13 04:32:22;;;;;;;14.90;8.00;;;;;;;;;;5070196;28;20089;-65
2022/04/13 04:34:48;;;;;;;14.05;7.63;;;;;;;;;;5088408;28;20049;-66
2022/04/13 04:37:14;;;;;;;14.70;7.97;;;;;;;;;;5053376;28;20056;-66
2022/04/13 04:39:41;;;;;;;19.38;8.18;;;;;;;;;;5047986;28;20503;-66
2022/04/13 04:42:07;;;;;;;14.48;7.88;;;;;;;;;;5048015;28;20061;-66
2022/04/13 04:44:33;;;;;;;20.17;8.77;;;;;;;;;;5087251;28;20084;-66
2022/04/13 04:47:00;;;;;;;22.23;9.23;;;;;;;;;;5086438;28;20503;-66
2022/04/13 04:49:26;;;;;;;24.15;9.57;;;;;;;;;;5087925;28;20053;-66
2022/04/13 04:51:52;;;;;;;16.00;7.97;;;;;;;;;;5088453;28;20569;-66
2022/04/13 04:54:19;;;;;;;15.25;8.07;;;;;;;;;;5083777;28;20414;-66
2022/04/13 04:56:45;;;;;;;21.95;8.95;;;;;;;;;;5085588;28;20148;-66
2022/04/13 04:59:12;;;;;;;14.80;8.25;;;;;;;;;;5067943;28;20084;-66
2022/04/13 05:01:38;;;;;;;21.83;8.43;;;;;;;;;;5066228;28;20043;-66
2022/04/13 05:04:04;;;;;;;19.70;8.73;;;;;;;;;;5066461;28;20056;-66
2022/04/13 05:06:31;;;;;;;21.70;8.68;;;;;;;;;;5087391;28;20087;-66
2022/04/13 05:08:57;;;;;;;17.20;8.50;;;;;;;;;;5088155;28;20049;-66
2022/04/13 05:11:24;;;;;;;16.80;8.23;;;;;;;;;;5087650;28;20212;-66
2022/04/13 05:13:50;;;;;;;23.38;9.23;;;;;;;;;;5084139;28;20510;-66
2022/04/13 05:16:17;;;;;;;15.00;7.97;;;;;;;;;;5073962;28;20057;-66
2022/04/13 05:18:45;;;;;;;15.55;8.95;;;;;;;;;;5074386;28;20050;-66
2022/04/13 05:21:12;;;;;;;14.73;8.53;;;;;;;;;;5085977;28;20053;-66
2022/04/13 05:23:41;;;;;;;21.27;8.65;;;;;;;;;;5087722;28;20055;-66
2022/04/13 05:26:07;;;;;;;18.13;8.63;;;;;;;;;;5086906;28;20053;-66
2022/04/13 05:28:33;;;;;;;21.63;9.18;;;;;;;;;;5085714;28;20429;-66
2022/04/13 05:31:00;;;;;;;18.17;9.48;;;;;;;;;;5084354;28;20522;-66
2022/04/13 05:33:26;;;;;;;15.90;8.45;;;;;;;;;;5072761;28;20941;-66
2022/04/13 05:35:53;;;;;;;21.10;9.20;;;;;;;;;;5085955;28;20518;-66
2022/04/13 05:38:19;;;;;;;22.67;9.18;;;;;;;;;;5085380;28;20059;-66
2022/04/13 05:40:45;;;;;;;19.30;9.50;;;;;;;;;;5077848;28;20049;-66
2022/04/13 05:43:12;;;;;;;20.48;9.30;;;;;;;;;;5062400;28;20497;-65
2022/04/13 05:45:38;;;;;;;16.85;8.85;;;;;;;;;;5071912;28;20053;-65
2022/04/13 05:48:05;;;;;;;15.10;8.55;;;;;;;;;;5054168;28;20483;-65
2022/04/13 05:50:31;;;;;;;21.25;9.82;;;;;;;;;;5084932;28;20878;-65
2022/04/13 05:52:58;;;;;;;20.67;9.05;;;;;;;;;;5086077;28;20052;-65
2022/04/13 05:55:25;;;;;;;17.63;8.90;;;;;;;;;;5083024;28;20903;-66
2022/04/13 05:57:51;;;;;;;17.60;9.75;;;;;;;;;;5087143;28;20143;-67
2022/04/13 06:00:18;;;;;;;19.50;10.05;;;;;;;;;;5072654;28;20049;-66
2022/04/13 06:02:44;;;;;;;20.05;10.35;;;;;;;;;;5071904;28;20084;-65
2022/04/13 06:05:12;;;;;;;18.13;10.10;;;;;;;;;;5067777;28;20133;-65
2022/04/13 06:07:38;;;;;;;18.58;9.98;;;;;;;;;;5067384;28;20059;-65
2022/04/13 06:10:05;;;;;;;19.88;10.25;;;;;;;;;;5077388;28;20052;-66
2022/04/13 06:12:32;;;;;;;23.02;10.95;;;;;;;;;;5087550;28;20601;-66
2022/04/13 06:15:05;;;;;;;20.75;11.02;;;;;;;;;;5076978;28;20176;-66
2022/04/13 06:17:31;;;;;;;20.20;10.57;;;;;;;;;;5079645;28;20204;-65
2022/04/13 06:19:57;;;;;;;21.00;10.75;;;;;;;;;;5077969;28;20437;-65
2022/04/13 06:22:24;;;;;;;16.80;9.85;;;;;;;;;;5070513;28;20049;-65
2022/04/13 06:24:51;;;;;;;24.05;11.00;;;;;;;;;;5074922;28;20155;-66
2022/04/13 06:27:19;;;;;;;22.27;10.40;;;;;;;;;;5088490;28;20895;-65
2022/04/13 06:29:45;;;;;;;24.42;10.98;;;;;;;;;;5088297;28;20139;-65
2022/04/13 06:32:12;;;;;;;17.48;9.63;;;;;;;;;;5084738;28;20520;-65
2022/04/13 06:34:39;;;;;;;20.65;10.77;;;;;;;;;;5076270;28;20052;-66
2022/04/13 06:37:05;;;;;;;26.27;10.70;;;;;;;;;;5071402;28;20429;-66
2022/04/13 06:39:32;;;;;;;20.30;10.90;;;;;;;;;;5082280;28;20049;-66
2022/04/13 06:41:58;;;;;;;17.35;9.88;;;;;;;;;;5080870;28;20943;-66
2022/04/13 06:44:24;;;;;;;18.80;10.68;;;;;;;;;;5079363;28;20052;-66
2022/04/13 06:46:52;;;;;;;24.27;10.82;;;;;;;;;;5073881;28;20063;-66
2022/04/13 06:49:18;;;;;;;17.55;9.13;;;;;;;;;;5087268;28;20066;-66
2022/04/13 06:51:44;;;;;;;16.08;8.15;;;;;;;;;;5081214;28;20059;-65
2022/04/13 06:54:11;;;;;;;16.98;8.30;;;;;;;;;;5086134;28;20148;-65
2022/04/13 06:56:39;;;;;;;19.92;8.25;;;;;;;;;;5083097;28;20104;-66
2022/04/13 06:59:06;;;;;;;12.80;7.35;;;;;;;;;;5073549;28;20582;-66
2022/04/13 07:01:32;;;;;;;10.60;6.70;;;;;;;;;;5083933;28;20148;-67
2022/04/13 07:03:59;;;;;;;15.57;7.60;;;;;;;;;;5073966;28;20056;-68
2022/04/13 07:06:25;;;;;;;14.20;6.70;;;;;;;;;;5089218;28;20056;-66
2022/04/13 07:09:08;;;;;;;14.43;6.30;;;;;;;;;;5083795;28;20111;-67
2022/04/13 07:11:34;;;;;;;13.95;7.07;;;;;;;;;;5089160;28;20172;-67
2022/04/13 07:14:00;;;;;;;13.45;6.90;;;;;;;;;;5074177;28;20052;-67
2022/04/13 07:16:27;;;;;;;12.95;6.45;;;;;;;;;;5073000;28;20937;-67
2022/04/13 07:18:53;;;;;;;16.40;5.90;;;;;;;;;;5072100;28;20045;-65
2022/04/13 07:21:20;;;;;;;11.55;6.03;;;;;;;;;;5086450;28;20052;-69
2022/04/13 07:24:06;;;;;;;12.07;6.00;;;;;;;;;;5087632;28;20059;-66
2022/04/13 07:26:32;;;;;;;15.15;6.45;;;;;;;;;;5088810;28;20148;-66
2022/04/13 07:28:59;;;;;;;12.10;6.13;;;;;;;;;;5088637;28;20605;-67
2022/04/13 07:31:25;;;;;;;10.55;6.00;;;;;;;;;;5089596;28;20036;-66
2022/04/13 07:33:51;;;;;;;13.82;6.72;;;;;;;;;;5088613;28;20064;-67
2022/04/13 07:36:18;;;;;;;14.70;6.97;;;;;;;;;;5088848;28;20156;-67
2022/04/13 07:38:44;;;;;;;14.88;6.32;;;;;;;;;;5088886;28;20056;-66
2022/04/13 07:41:10;;;;;;;13.77;6.30;;;;;;;;;;5088976;28;20050;-66
2022/04/13 07:43:37;;;;;;;13.93;5.88;;;;;;;;;;5089566;28;20087;-67
2022/04/13 07:46:03;;;;;;;12.38;6.13;;;;;;;;;;5089008;28;20052;-66
2022/04/13 07:48:30;;;;;;;16.52;5.95;;;;;;;;;;5088939;28;20560;-67
2022/04/13 07:50:56;;;;;;;14.52;6.10;;;;;;;;;;5087973;28;20576;-67
2022/04/13 07:53:23;;;;;;;13.93;6.20;;;;;;;;;;5088436;28;20144;-67
2022/04/13 07:55:52;;;;;;;13.68;5.32;;;;;;;;;;5088607;28;20068;-67
2022/04/13 07:58:19;;;;;;;10.70;4.78;;;;;;;;;;5088597;28;20147;-67
2022/04/13 08:00:45;;;;;;;16.95;4.35;;;;;;;;;;5088937;28;20060;-67
2022/04/13 08:03:12;;;;;;;8.77;3.80;;;;;;;;;;5088772;28;20134;-67
2022/04/13 08:05:58;;;;;;;12.38;4.20;;;;;;;;;;5088990;28;20075;-67
2022/04/13 08:08:24;;;;;;;9.55;3.80;;;;;;;;;;5087661;28;20057;-67
2022/04/13 08:10:51;;;;;;;13.90;5.10;;;;;;;;;;5087684;28;20052;-67
2022/04/13 08:13:17;;;;;;;12.30;4.40;;;;;;;;;;5088429;28;20056;-67
2022/04/13 08:16:03;;;;;;;12.90;4.95;;;;;;;;;;5089374;28;20058;-66
2022/04/13 08:18:36;;;;;;;14.15;4.28;;;;;;;;;;5087086;28;20832;-66
2022/04/13 08:21:04;;;;;;;13.15;4.75;;;;;;;;;;5088417;28;20132;-67
2022/04/13 08:23:30;;;;;;;12.05;4.25;;;;;;;;;;5087961;28;20044;-67
2022/04/13 08:25:57;;;;;;;10.73;4.30;;;;;;;;;;5088338;28;20126;-67
2022/04/13 08:28:23;;;;;;;11.55;4.80;;;;;;;;;;5087571;28;20954;-67
2022/04/13 08:30:50;;;;;;;13.18;4.38;;;;;;;;;;5088080;28;20643;-67
2022/04/13 08:33:17;;;;;;;10.65;4.88;;;;;;;;;;5087971;28;20473;-66
2022/04/13 08:35:43;;;;;;;14.55;4.55;;;;;;;;;;5087383;28;20878;-67
2022/04/13 08:38:09;;;;;;;15.57;4.93;;;;;;;;;;5088470;28;20083;-66
2022/04/13 08:40:38;;;;;;;15.02;4.18;;;;;;;;;;5087699;28;20087;-67
2022/04/13 08:43:04;;;;;;;;;;;;;;;;;;5087577;28;20055;-67
2022/04/13 08:45:34;;;;;;;10.45;3.38;;;;;;;;;;5087419;28;45676;-67
2022/04/13 08:48:02;;;;;;;12.07;4.35;;;;;;;;;;5088222;28;20053;-67
2022/04/13 08:50:29;;;;;;;12.85;4.30;;;;;;;;;;5087521;28;20071;-67
2022/04/13 08:52:59;;;;;;;10.68;3.72;;;;;;;;;;5087310;28;20128;-67
2022/04/13 08:55:27;;;;;;;9.13;3.97;;;;;;;;;;5087507;28;20056;-67
2022/04/13 08:57:57;;;;;;;10.50;3.45;;;;;;;;;;5087481;28;20139;-67
2022/04/13 09:00:25;;;;;;;11.75;3.10;;;;;;;;;;5087988;28;20155;-67
2022/04/13 09:03:09;;;;;;;12.80;3.22;;;;;;;;;;5087861;28;20053;-67
2022/04/13 09:05:46;;;;;;;11.60;4.15;;;;;;;;;;5088471;28;20542;-67
2022/04/13 09:08:22;;;;;;;13.02;3.60;;;;;;;;;;5087039;28;20140;-67
2022/04/13 09:10:50;;;;;;;12.10;4.32;;;;;;;;;;5087389;28;20053;-67
2022/04/13 09:13:18;;;;;;;23.02;5.32;;;;;;;;;;5087652;28;20047;-67
2022/04/13 09:15:44;;;;;;;17.63;4.85;;;;;;;;;;5087449;28;20063;-67
2022/04/13 09:18:14;;;;;;;12.07;4.50;;;;;;;;;;5087387;28;20562;-67
2022/04/13 09:20:41;;;;;;;12.18;4.10;;;;;;;;;;5087323;28;20056;-67
2022/04/13 09:23:07;;;;;;;11.93;4.40;;;;;;;;;;5088070;28;20053;-67
2022/04/13 09:25:34;;;;;;;11.65;4.57;;;;;;;;;;5087243;28;20507;-67
2022/04/13 09:28:01;;;;;;;16.57;4.70;;;;;;;;;;5088128;28;20084;-67
2022/04/13 09:30:30;;;;;;;11.05;4.68;;;;;;;;;;5086966;28;20056;-67
2022/04/13 09:32:56;;;;;;;;;;;;;;;;;;5086789;28;20139;-67
2022/04/13 09:35:23;;;;;;;10.88;4.28;;;;;;;;;;5086549;28;44707;-67
2022/04/13 09:37:49;;;;;;;12.80;4.25;;;;;;;;;;5086740;28;20547;-67
2022/04/13 09:40:35;;;;;;;11.15;4.18;;;;;;;;;;5087081;28;20516;-67
2022/04/13 09:43:20;;;;;;;9.27;3.53;;;;;;;;;;5087256;28;20129;-67
2022/04/13 09:45:49;;;;;;;10.35;3.72;;;;;;;;;;5087267;28;20110;-67
2022/04/13 09:48:23;;;;;;;10.27;4.40;;;;;;;;;;5089609;28;20156;-67
2022/04/13 09:50:51;;;;;;;15.45;5.05;;;;;;;;;;5090694;28;20084;-67
2022/04/13 09:53:18;;;;;;;13.80;4.40;;;;;;;;;;5090633;28;20582;-67
2022/04/13 09:55:49;;;;;;;16.95;5.00;;;;;;;;;;5090445;28;20082;-67
2022/04/13 09:58:17;;;;;;;19.10;4.93;;;;;;;;;;5089586;28;20575;-67
2022/04/13 10:00:45;;;;;;;18.77;4.88;;;;;;;;;;5090538;28;20056;-67
2022/04/13 10:03:11;;;;;;;12.95;4.60;;;;;;;;;;5090205;28;20061;-67
2022/04/13 10:05:40;;;;;;;17.15;5.15;;;;;;;;;;5090305;28;20648;-67
2022/04/13 10:08:08;;;;;;;14.00;4.65;;;;;;;;;;5090622;28;20049;-67
2022/04/13 10:10:35;;;;;;;11.88;4.70;;;;;;;;;;5090002;28;20152;-67
2022/04/13 10:13:02;;;;;;;13.45;3.60;;;;;;;;;;5090365;28;20059;-67
2022/04/13 10:15:29;;;;;;;11.57;3.95;;;;;;;;;;5090179;28;21012;-67
2022/04/13 10:18:04;;;;;;;15.38;4.82;;;;;;;;;;5090930;28;20052;-67
2022/04/13 10:20:46;;;;;;;16.40;5.43;;;;;;;;;;5090400;28;20148;-67
2022/04/13 10:23:13;;;;;;;13.77;5.28;;;;;;;;;;5089991;28;20176;-67
2022/04/13 10:25:40;;;;;;;11.65;3.53;;;;;;;;;;5090200;28;20139;-67
2022/04/13 10:28:06;;;;;;;16.88;4.53;;;;;;;;;;5090313;28;20135;-67
2022/04/13 10:30:37;;;;;;;9.77;3.88;;;;;;;;;;5090115;28;20186;-67
2022/04/13 10:33:05;;;;;;;13.02;4.30;;;;;;;;;;5090356;28;20044;-66
2022/04/13 10:35:32;;;;;;;12.57;4.32;;;;;;;;;;5089632;28;20152;-67
2022/04/13 10:37:59;;;;;;;15.80;5.03;;;;;;;;;;5089934;28;20152;-67
2022/04/13 10:40:29;;;;;;;16.38;4.82;;;;;;;;;;5089863;28;20435;-67
2022/04/13 10:42:58;;;;;;;13.15;5.13;;;;;;;;;;5089382;28;20114;-67
2022/04/13 10:45:25;;;;;;;13.32;5.05;;;;;;;;;;5089411;28;20498;-67
2022/04/13 10:47:52;;;;;;;14.65;4.63;;;;;;;;;;5089542;28;20048;-67
2022/04/13 10:50:30;;;;;;;15.23;4.63;;;;;;;;;;5089652;28;20048;-67
2022/04/13 10:52:57;;;;;;;13.82;4.38;;;;;;;;;;5090022;28;20519;-67
2022/04/13 10:55:27;;;;;;;12.67;4.50;;;;;;;;;;5089920;28;20192;-67
2022/04/13 10:57:57;;;;;;;11.82;4.20;;;;;;;;;;5089078;28;20355;-67
2022/04/13 11:00:24;;;;;;;12.55;4.30;;;;;;;;;;5089830;28;20078;-67
2022/04/13 11:02:52;;;;;;;12.38;4.40;;;;;;;;;;5089264;28;20208;-67
2022/04/13 11:05:20;;;;;;;13.52;5.18;;;;;;;;;;5089447;28;20520;-67
2022/04/13 11:07:47;;;;;;;11.77;4.55;;;;;;;;;;5089074;28;20052;-67
2022/04/13 11:10:17;;;;;;;11.25;5.22;;;;;;;;;;5089771;28;20514;-67
2022/04/13 11:12:44;;;;;;;13.57;4.70;;;;;;;;;;5089224;28;20048;-67
2022/04/13 11:15:18;;;;;;;12.18;4.55;;;;;;;;;;5089131;28;20061;-67
2022/04/13 11:17:44;;;;;;;14.07;4.45;;;;;;;;;;5089860;28;20092;-67
2022/04/13 11:20:15;;;;;;;11.25;4.68;;;;;;;;;;5089100;28;20052;-67
2022/04/13 11:22:41;;;;;;;12.63;4.55;;;;;;;;;;5089762;28;20090;-67
2022/04/13 11:25:07;;;;;;;14.15;4.32;;;;;;;;;;5089622;28;20139;-67
2022/04/13 11:27:50;;;;;;;13.73;5.03;;;;;;;;;;5089348;28;20052;-67
2022/04/13 11:30:16;;;;;;;12.02;5.20;;;;;;;;;;5089278;28;20060;-67
2022/04/13 11:32:42;;;;;;;10.82;4.85;;;;;;;;;;5089896;28;20057;-67
2022/04/13 11:35:21;;;;;;;14.52;5.43;;;;;;;;;;5089241;28;20056;-67
2022/04/13 11:38:01;;;;;;;19.23;6.30;;;;;;;;;;5087868;28;20143;-67
2022/04/13 11:40:27;;;;;;;11.07;4.55;;;;;;;;;;5088978;28;20175;-67
2022/04/13 11:42:53;;;;;;;17.77;5.10;;;;;;;;;;5088953;28;20052;-67
2022/04/13 11:45:21;;;;;;;14.63;4.72;;;;;;;;;;5088835;28;20080;-67
2022/04/13 11:47:53;;;;;;;11.47;4.90;;;;;;;;;;5088889;28;20057;-67
2022/04/13 11:50:21;;;;;;;13.65;4.47;;;;;;;;;;5088516;28;20489;-67
2022/04/13 11:52:59;;;;;;;14.70;4.50;;;;;;;;;;5089251;28;20174;-67
2022/04/13 11:55:27;;;;;;;13.00;3.75;;;;;;;;;;5088991;28;20151;-68
2022/04/13 11:58:09;;;;;;;12.50;4.37;;;;;;;;;;5088800;28;20057;-67
2022/04/13 12:00:42;;;;;;;12.77;4.22;;;;;;;;;;5088696;28;20511;-68
2022/04/13 12:03:09;;;;;;;15.07;3.55;;;;;;;;;;5087846;28;20068;-68
2022/04/13 12:05:38;;;;;;;18.40;3.50;;;;;;;;;;5088490;28;20139;-67
2022/04/13 12:08:09;;;;;;;11.60;3.83;;;;;;;;;;5089467;28;20640;-68
2022/04/13 12:10:36;;;;;;;9.68;3.70;;;;;;;;;;5087495;28;20581;-67
2022/04/13 12:13:03;;;;;;;12.15;4.18;;;;;;;;;;5088690;28;20139;-68
2022/04/13 12:15:43;;;;;;;16.77;4.60;;;;;;;;;;5087660;28;20060;-67
2022/04/13 12:18:10;;;;;;;12.20;4.72;;;;;;;;;;5088559;28;20048;-67
2022/04/13 12:20:37;;;;;;;11.65;4.20;;;;;;;;;;5087968;28;20163;-68
2022/04/13 12:23:25;;;;;;;11.15;4.40;;;;;;;;;;5088657;28;20088;-67
2022/04/13 12:25:52;;;;;;;13.95;4.97;;;;;;;;;;5088039;28;20052;-69
2022/04/13 12:28:19;;;;;;;14.20;4.72;;;;;;;;;;5087489;28;20617;-66
2022/04/13 12:30:56;;;;;;;13.50;4.53;;;;;;;;;;5088182;28;20237;-67
2022/04/13 12:33:23;;;;;;;9.38;4.25;;;;;;;;;;5087912;28;20056;-67
2022/04/13 12:35:53;;;;;;;11.90;5.10;;;;;;;;;;5088373;28;20135;-67
2022/04/13 12:38:23;;;;;;;15.30;5.80;;;;;;;;;;5088314;28;20052;-67
2022/04/13 12:40:59;;;;;;;13.65;5.13;;;;;;;;;;5088730;28;20516;-67
2022/04/13 12:43:28;;;;;;;12.93;4.35;;;;;;;;;;5087829;28;20147;-67
2022/04/13 12:45:55;;;;;;;12.25;4.95;;;;;;;;;;5079053;28;20052;-67
2022/04/13 12:48:25;;;;;;;12.93;4.60;;;;;;;;;;5066278;28;20049;-67
2022/04/13 12:50:58;;;;;;;13.55;4.88;;;;;;;;;;5066161;28;20729;-67
2022/04/13 12:53:24;;;;;;;10.82;3.83;;;;;;;;;;5065996;28;20059;-67
2022/04/13 12:55:52;;;;;;;12.73;3.60;;;;;;;;;;5067811;28;20053;-67
2022/04/13 12:58:18;;;;;;;13.63;4.28;;;;;;;;;;5067359;28;20166;-67
2022/04/13 13:00:47;;;;;;;11.07;3.83;;;;;;;;;;5067843;28;20049;-67
2022/04/13 13:03:13;;;;;;;;;;;;;;;;;;5068453;28;20056;-67
2022/04/13 13:05:39;;;;;;;11.13;3.83;;;;;;;;;;5066841;28;44853;-67
2022/04/13 13:08:06;;;;;;;16.05;3.53;;;;;;;;;;5067261;28;20100;-68
2022/04/13 13:10:33;;;;;;;8.85;3.13;;;;;;;;;;5066997;28;20057;-67
2022/04/13 13:13:10;;;;;;;12.68;3.30;;;;;;;;;;5066804;28;20142;-67
2022/04/13 13:15:37;;;;;;;11.38;3.55;;;;;;;;;;5066670;28;20053;-67
2022/04/13 13:18:04;;;;;;;10.10;3.28;;;;;;;;;;5067022;28;20648;-67
2022/04/13 13:20:30;;;;;;;41.10;6.47;;;;;;;;;;5067248;28;20053;-67
2022/04/13 13:22:57;;;;;;;8.63;3.17;;;;;;;;;;5055442;28;20143;-67
2022/04/13 13:25:24;;;;;;;10.73;3.15;;;;;;;;;;5072908;28;20127;-67
2022/04/13 13:27:55;;;;;;;8.57;3.22;;;;;;;;;;5073758;28;20055;-67
2022/04/13 13:30:22;;;;;;;9.90;2.40;;;;;;;;;;5073506;28;20150;-67
2022/04/13 13:32:53;;;;;;;8.85;3.13;;;;;;;;;;5073832;28;20055;-67
2022/04/13 13:35:21;;;;;;;10.88;3.40;;;;;;;;;;5073722;28;20176;-67
2022/04/13 13:37:51;;;;;;;10.63;3.80;;;;;;;;;;5073541;28;20622;-67
2022/04/13 13:40:31;;;;;;;8.88;3.40;;;;;;;;;;5055932;28;20132;-67
2022/04/13 13:42:58;;;;;;;8.27;3.17;;;;;;;;;;5073253;28;20076;-67
2022/04/13 13:45:29;;;;;;;11.00;3.45;;;;;;;;;;5074140;28;20064;-67
2022/04/13 13:47:55;;;;;;;11.63;3.22;;;;;;;;;;5073820;28;20085;-68
2022/04/13 13:50:22;;;;;;;8.23;3.28;;;;;;;;;;5073697;28;20116;-67
2022/04/13 13:52:48;;;;;;;9.40;3.80;;;;;;;;;;5073930;28;20055;-67
2022/04/13 13:55:24;;;;;;;4.95;2.13;;;;;;;;;;5073570;28;20059;-67
2022/04/13 13:57:51;;;;;;;12.35;2.92;;;;;;;;;;5073635;28;20145;-67
2022/04/13 14:00:18;;;;;;;7.47;2.17;;;;;;;;;;5073433;28;20136;-67
2022/04/13 14:02:52;;;;;;;9.65;2.97;;;;;;;;;;5073923;28;20108;-67
2022/04/13 14:05:22;;;;;;;13.27;3.65;;;;;;;;;;5073579;28;20538;-67
2022/04/13 14:07:50;;;;;;;9.60;3.13;;;;;;;;;;5073290;28;20148;-67
2022/04/13 14:10:17;;;;;;;7.63;2.90;;;;;;;;;;5073990;28;20094;-67
2022/04/13 14:12:43;;;;;;;7.22;3.20;;;;;;;;;;5073989;28;20135;-67
2022/04/13 14:15:12;;;;;;;10.52;3.95;;;;;;;;;;5072907;28;20053;-67
2022/04/13 14:17:39;;;;;;;12.05;3.70;;;;;;;;;;5056007;28;20116;-67
2022/04/13 14:20:06;;;;;;;10.70;3.40;;;;;;;;;;5073443;28;20494;-67
2022/04/13 14:22:33;;;;;;;8.55;3.30;;;;;;;;;;5072826;28;20156;-68
2022/04/13 14:25:00;;;;;;;8.38;3.80;;;;;;;;;;5073205;28;20053;-67
2022/04/13 14:27:26;;;;;;;10.13;3.80;;;;;;;;;;5072718;28;20147;-68
2022/04/13 14:29:52;;;;;;;9.70;4.00;;;;;;;;;;5073821;28;20132;-67
2022/04/13 14:32:19;;;;;;;9.98;3.70;;;;;;;;;;5072613;28;20059;-67
2022/04/13 14:34:45;;;;;;;8.38;4.07;;;;;;;;;;5069362;28;20136;-67